Time;durP1;ratioP1;P1;durP2;ratioP2;P2;SDS_P1;SDS_P2;PMS_P1;PMS_P2;Temp;Humidity;BMP_temperature;BMP_pressure;BME280_temperature;BME280_humidity;BME280_pressure;Samples;Min_cycle;Max_cycle;Signal;HPM_P1;HPM_P2
2023/10/25 00:00:54;;;;;;;3.85;2.08;;;25.40;54.50;;;;;;5096403;28;20035;-73
2023/10/25 00:03:20;;;;;;;5.15;3.15;;;25.50;54.50;;;;;;5114852;28;20046;-74
2023/10/25 00:05:46;;;;;;;8.50;2.30;;;25.50;54.50;;;;;;5101482;28;20028;-74
2023/10/25 00:08:12;;;;;;;7.20;2.60;;;25.40;54.60;;;;;;5075945;28;20487;-74
2023/10/25 00:10:38;;;;;;;3.35;2.25;;;25.30;54.60;;;;;;5094043;28;20116;-74
2023/10/25 00:13:04;;;;;;;4.93;2.53;;;25.50;54.60;;;;;;5093777;28;20135;-74
2023/10/25 00:15:31;;;;;;;5.47;2.63;;;25.50;54.60;;;;;;5075932;28;20032;-74
2023/10/25 00:17:57;;;;;;;3.83;2.67;;;25.50;54.60;;;;;;5076079;28;20077;-74
2023/10/25 00:20:22;;;;;;;6.22;2.13;;;25.40;54.60;;;;;;5093820;28;20436;-74
2023/10/25 00:22:48;;;;;;;5.22;2.55;;;25.50;54.50;;;;;;5075855;28;20379;-74
2023/10/25 00:25:14;;;;;;;4.53;2.22;;;25.50;54.60;;;;;;5093567;28;20048;-74
2023/10/25 00:27:40;;;;;;;3.10;1.80;;;25.40;54.60;;;;;;5093302;28;20521;-74
2023/10/25 00:30:07;;;;;;;8.43;2.50;;;25.40;54.60;;;;;;5075617;28;20024;-74
2023/10/25 00:32:33;;;;;;;3.17;1.98;;;25.30;54.60;;;;;;5075686;28;20027;-74
2023/10/25 00:35:00;;;;;;;5.88;2.65;;;25.30;54.60;;;;;;5041648;28;20048;-74
2023/10/25 00:37:25;;;;;;;4.65;2.90;;;25.40;54.60;;;;;;5058653;28;20066;-73
2023/10/25 00:39:51;;;;;;;7.03;2.30;;;25.40;54.60;;;;;;5058510;28;20019;-74
2023/10/25 00:42:17;;;;;;;6.72;2.63;;;25.30;54.60;;;;;;5093211;28;20043;-74
2023/10/25 00:44:43;;;;;;;6.55;2.72;;;25.40;54.70;;;;;;5075038;28;20043;-74
2023/10/25 00:47:09;;;;;;;3.70;2.30;;;25.30;54.70;;;;;;5092961;28;20036;-74
2023/10/25 00:49:36;;;;;;;10.82;2.92;;;25.40;54.80;;;;;;5093149;28;20028;-74
2023/10/25 00:52:03;;;;;;;5.72;2.75;;;25.30;54.80;;;;;;5093247;28;20024;-74
2023/10/25 00:54:29;;;;;;;4.00;1.90;;;25.40;54.80;;;;;;5093212;28;20130;-74
2023/10/25 00:56:57;;;;;;;5.78;2.47;;;25.30;54.80;;;;;;5075357;28;20422;-74
2023/10/25 00:59:24;;;;;;;13.52;3.22;;;25.30;54.80;;;;;;5033533;28;20041;-74
2023/10/25 01:01:51;;;;;;;3.25;2.10;;;25.30;54.90;;;;;;5033950;28;20500;-74
2023/10/25 01:04:17;;;;;;;3.53;2.38;;;25.30;54.90;;;;;;5067329;28;20056;-74
2023/10/25 01:06:43;;;;;;;7.03;2.70;;;25.40;54.90;;;;;;5050483;28;20573;-74
2023/10/25 01:09:09;;;;;;;3.83;2.28;;;25.40;54.90;;;;;;5066891;28;20064;-74
2023/10/25 01:11:35;;;;;;;7.10;2.53;;;25.30;54.90;;;;;;5050365;28;20060;-74
2023/10/25 01:14:01;;;;;;;4.15;2.20;;;25.40;54.90;;;;;;5050281;28;20160;-74
2023/10/25 01:16:27;;;;;;;4.45;2.42;;;25.50;54.90;;;;;;5050012;28;20048;-74
2023/10/25 01:18:54;;;;;;;4.93;2.65;;;25.40;54.90;;;;;;5049761;28;20088;-74
2023/10/25 01:21:21;;;;;;;3.20;2.30;;;25.30;54.80;;;;;;5050083;28;20177;-74
2023/10/25 01:23:55;;;;;;;6.90;2.55;;;25.40;54.80;;;;;;5068508;28;20045;-74
2023/10/25 01:26:21;;;;;;;5.60;2.60;;;25.30;54.80;;;;;;5052980;28;20432;-74
2023/10/25 01:28:47;;;;;;;3.28;2.40;;;25.30;54.80;;;;;;5070048;28;20025;-73
2023/10/25 01:31:13;;;;;;;4.95;2.55;;;25.30;54.80;;;;;;5053150;28;20385;-74
2023/10/25 01:33:39;;;;;;;5.65;2.55;;;25.30;54.80;;;;;;5053044;28;20050;-74
2023/10/25 01:36:05;;;;;;;5.60;2.85;;;25.30;54.90;;;;;;5069850;28;20040;-74
2023/10/25 01:38:31;;;;;;;8.57;2.88;;;25.20;54.90;;;;;;5092194;28;20195;-74
2023/10/25 01:40:57;;;;;;;4.53;2.47;;;25.30;54.90;;;;;;5092185;28;20028;-74
2023/10/25 01:43:24;;;;;;;11.18;2.67;;;25.30;54.90;;;;;;5092352;28;20085;-74
2023/10/25 01:45:50;;;;;;;9.48;3.03;;;25.30;54.90;;;;;;5074029;28;20460;-74
2023/10/25 01:48:16;;;;;;;6.03;2.63;;;25.30;55.00;;;;;;5092319;28;20032;-74
2023/10/25 01:50:42;;;;;;;4.68;2.47;;;25.30;55.10;;;;;;5057354;28;20093;-73
2023/10/25 01:53:08;;;;;;;4.72;2.53;;;25.20;55.00;;;;;;5092051;28;20085;-74
2023/10/25 01:55:40;;;;;;;4.25;2.80;;;25.30;55.00;;;;;;5092245;28;20437;-74
2023/10/25 01:58:06;;;;;;;3.70;2.05;;;25.20;55.00;;;;;;5073971;28;20464;-74
2023/10/25 02:00:32;;;;;;;4.10;2.63;;;25.20;55.10;;;;;;5073927;28;20023;-74
2023/10/25 02:02:58;;;;;;;6.22;3.35;;;25.30;55.00;;;;;;5073569;28;20093;-74
2023/10/25 02:05:24;;;;;;;6.95;4.05;;;25.30;55.00;;;;;;5092244;28;20043;-74
2023/10/25 02:07:50;;;;;;;7.15;4.32;;;25.30;55.00;;;;;;5073578;28;20077;-74
2023/10/25 02:10:18;;;;;;;7.05;2.85;;;25.30;55.10;;;;;;5073276;28;20119;-74
2023/10/25 02:12:44;;;;;;;3.25;2.63;;;25.30;55.10;;;;;;5073640;28;20028;-74
2023/10/25 02:15:10;;;;;;;2.78;2.30;;;25.30;55.00;;;;;;5073992;28;20046;-74
2023/10/25 02:17:36;;;;;;;3.28;2.25;;;25.20;55.00;;;;;;5091593;28;20032;-74
2023/10/25 02:20:02;;;;;;;2.58;2.38;;;25.30;55.00;;;;;;5073402;28;20032;-74
2023/10/25 02:22:28;;;;;;;9.77;2.97;;;25.20;55.00;;;;;;5073637;28;20111;-74
2023/10/25 02:24:55;;;;;;;4.88;3.08;;;25.30;55.00;;;;;;5091074;28;20127;-73
2023/10/25 02:27:22;;;;;;;6.03;2.47;;;25.30;55.00;;;;;;5039605;28;20581;-74
2023/10/25 02:29:49;;;;;;;5.60;2.55;;;25.20;55.00;;;;;;5091179;28;20089;-74
2023/10/25 02:32:15;;;;;;;4.85;2.83;;;25.10;55.00;;;;;;5073019;28;20410;-73
2023/10/25 02:34:41;;;;;;;4.90;2.40;;;25.10;55.00;;;;;;5091054;28;20040;-74
2023/10/25 02:37:07;;;;;;;4.13;2.70;;;25.20;55.00;;;;;;5091065;28;20068;-74
2023/10/25 02:39:33;;;;;;;8.00;3.08;;;25.20;55.00;;;;;;5091327;28;20121;-73
2023/10/25 02:41:59;;;;;;;8.27;3.42;;;25.10;55.00;;;;;;5073389;28;20553;-74
2023/10/25 02:44:25;;;;;;;5.28;2.42;;;25.10;55.10;;;;;;5073404;28;20036;-74
2023/10/25 02:46:51;;;;;;;9.43;3.30;;;25.30;55.20;;;;;;5073455;28;20032;-74
2023/10/25 02:49:17;;;;;;;4.82;2.85;;;25.20;55.20;;;;;;5073400;28;20074;-73
2023/10/25 02:51:43;;;;;;;7.78;2.90;;;25.10;55.20;;;;;;5073546;28;20032;-73
2023/10/25 02:54:09;;;;;;;5.88;3.40;;;25.10;55.20;;;;;;5073586;28;20036;-74
2023/10/25 02:56:35;;;;;;;6.05;2.72;;;25.10;55.20;;;;;;5091238;28;20032;-74
2023/10/25 02:59:01;;;;;;;7.07;3.08;;;25.30;55.20;;;;;;5073494;28;20040;-74
2023/10/25 03:01:27;;;;;;;4.53;2.63;;;25.20;55.20;;;;;;5091423;28;20036;-74
2023/10/25 03:03:53;;;;;;;5.20;2.60;;;25.20;55.20;;;;;;5073390;28;20479;-74
2023/10/25 03:06:19;;;;;;;2.28;1.88;;;25.20;55.20;;;;;;5073631;28;20107;-73
2023/10/25 03:08:46;;;;;;;5.07;2.05;;;25.10;55.20;;;;;;5073014;28;20036;-74
2023/10/25 03:11:12;;;;;;;3.80;1.95;;;25.20;55.20;;;;;;5073124;28;20028;-74
2023/10/25 03:13:38;;;;;;;6.50;2.35;;;25.30;55.20;;;;;;5073345;28;20396;-74
2023/10/25 03:16:05;;;;;;;6.35;2.95;;;25.30;55.10;;;;;;5097000;28;20020;-74
2023/10/25 03:18:32;;;;;;;4.50;2.75;;;25.20;55.10;;;;;;5111244;28;20392;-74
2023/10/25 03:21:03;;;;;;;8.25;3.17;;;25.30;55.10;;;;;;5059930;28;20518;-74
2023/10/25 03:23:30;;;;;;;4.40;3.47;;;25.20;55.10;;;;;;5114921;28;20118;-74
2023/10/25 03:26:07;;;;;;;4.70;2.58;;;25.10;55.10;;;;;;5097198;28;20056;-74
2023/10/25 03:28:34;;;;;;;8.07;3.00;;;25.10;55.10;;;;;;5096869;28;20490;-74
2023/10/25 03:31:07;;;;;;;3.67;2.40;;;25.10;55.20;;;;;;5097099;28;20035;-74
2023/10/25 03:33:33;;;;;;;2.90;2.00;;;25.10;55.20;;;;;;5114888;28;20032;-74
2023/10/25 03:36:00;;;;;;;3.65;2.30;;;25.20;55.20;;;;;;5114987;28;20036;-73
2023/10/25 03:38:26;;;;;;;3.90;2.03;;;25.10;55.30;;;;;;5096800;28;20161;-74
2023/10/25 03:41:07;;;;;;;2.45;1.67;;;25.20;55.30;;;;;;5115003;28;20056;-74
2023/10/25 03:43:34;;;;;;;5.13;2.40;;;25.00;55.30;;;;;;5110987;28;20031;-73
2023/10/25 03:46:07;;;;;;;7.15;1.70;;;25.20;55.30;;;;;;5076448;28;20404;-75
2023/10/25 03:48:38;;;;;;;1.40;1.13;;;25.20;55.30;;;;;;5059420;28;20467;-74
2023/10/25 03:51:05;;;;;;;2.03;1.52;;;25.20;55.30;;;;;;5076371;28;20130;-73
2023/10/25 03:53:33;;;;;;;2.95;1.73;;;25.00;55.40;;;;;;5075898;28;20043;-73
2023/10/25 03:55:59;;;;;;;5.68;2.60;;;25.20;55.40;;;;;;5058929;28;20145;-72
2023/10/25 03:58:25;;;;;;;6.15;3.17;;;25.00;55.40;;;;;;5062338;28;20380;-72
2023/10/25 04:00:59;;;;;;;8.90;3.25;;;25.20;55.70;;;;;;5094168;28;20020;-73
2023/10/25 04:03:26;;;;;;;1.92;1.73;;;25.00;56.00;;;;;;5076055;28;20036;-73
2023/10/25 04:05:53;;;;;;;5.32;1.92;;;25.20;56.40;;;;;;5075941;28;20035;-74
2023/10/25 04:08:19;;;;;;;3.42;2.30;;;25.10;56.00;;;;;;5075815;28;20071;-74
2023/10/25 04:10:55;;;;;;;6.18;2.35;;;25.30;55.30;;;;;;5093787;28;20052;-74
2023/10/25 04:13:22;;;;;;;5.45;2.45;;;25.20;54.50;;;;;;5094230;28;20490;-74
2023/10/25 04:16:02;;;;;;;6.20;3.08;;;25.20;53.90;;;;;;5094490;28;20028;-74
2023/10/25 04:18:29;;;;;;;4.55;3.08;;;25.30;53.30;;;;;;5094671;28;20054;-74
2023/10/25 04:20:56;;;;;;;5.25;2.60;;;25.10;52.80;;;;;;5093886;28;20044;-74
2023/10/25 04:23:24;;;;;;;6.05;3.45;;;25.20;52.60;;;;;;5093667;28;20127;-73
2023/10/25 04:25:50;;;;;;;5.35;2.75;;;25.30;52.50;;;;;;5093762;28;20048;-73
2023/10/25 04:28:18;;;;;;;6.25;3.00;;;25.20;52.40;;;;;;5058627;28;20088;-74
2023/10/25 04:30:45;;;;;;;8.38;3.55;;;25.20;52.30;;;;;;5075055;28;20085;-73
2023/10/25 04:33:11;;;;;;;7.90;3.78;;;25.20;52.90;;;;;;5092767;28;20032;-73
2023/10/25 04:35:37;;;;;;;5.85;3.70;;;25.30;54.40;;;;;;5075502;28;20046;-73
2023/10/25 04:38:03;;;;;;;7.35;4.90;;;25.30;54.20;;;;;;5074929;28;20034;-74
2023/10/25 04:40:31;;;;;;;5.72;5.00;;;25.40;54.20;;;;;;5093115;28;20111;-73
2023/10/25 04:42:57;;;;;;;6.80;5.00;;;25.30;54.80;;;;;;5093030;28;20032;-73
2023/10/25 04:45:23;;;;;;;4.13;3.30;;;25.40;55.30;;;;;;5093102;28;20442;-73
2023/10/25 04:47:51;;;;;;;2.72;2.45;;;25.40;53.20;;;;;;5092653;28;20062;-74
2023/10/25 04:50:19;;;;;;;8.73;3.97;;;25.30;52.50;;;;;;5092920;28;20032;-73
2023/10/25 04:52:45;;;;;;;5.20;2.78;;;25.30;49.70;;;;;;5092496;28;20046;-74
2023/10/25 04:55:11;;;;;;;7.43;2.95;;;25.30;51.30;;;;;;5092676;28;20118;-73
2023/10/25 04:57:37;;;;;;;10.00;3.00;;;25.20;51.60;;;;;;5092979;28;20024;-74
2023/10/25 05:00:07;;;;;;;4.20;2.63;;;25.30;52.10;;;;;;5092938;28;20024;-74
2023/10/25 05:02:33;;;;;;;6.38;3.25;;;25.40;54.00;;;;;;5092805;28;20032;-75
2023/10/25 05:04:59;;;;;;;4.28;3.28;;;25.40;55.10;;;;;;5074766;28;20367;-75
2023/10/25 05:07:25;;;;;;;8.90;3.63;;;25.50;54.50;;;;;;5092972;28;20130;-76
2023/10/25 05:09:52;;;;;;;10.10;3.40;;;25.40;54.60;;;;;;5074907;28;20039;-75
2023/10/25 05:12:28;;;;;;;4.22;2.90;;;25.50;54.70;;;;;;5093066;28;20107;-75
2023/10/25 05:14:54;;;;;;;7.60;3.83;;;25.50;56.40;;;;;;5092516;28;20047;-74
2023/10/25 05:17:21;;;;;;;7.35;3.42;;;25.30;55.40;;;;;;5092839;28;20770;-73
2023/10/25 05:19:47;;;;;;;9.13;3.75;;;25.60;55.10;;;;;;5094325;28;20036;-72
2023/10/25 05:22:15;;;;;;;7.00;3.30;;;25.50;54.80;;;;;;5050554;28;20041;-73
2023/10/25 05:24:41;;;;;;;8.32;3.35;;;25.40;54.90;;;;;;5032794;28;20499;-73
2023/10/25 05:27:07;;;;;;;3.92;3.08;;;25.50;55.50;;;;;;5033304;28;20045;-73
2023/10/25 05:29:34;;;;;;;5.00;3.10;;;25.50;55.50;;;;;;5049393;28;20044;-72
2023/10/25 05:32:05;;;;;;;5.57;3.10;;;25.50;55.50;;;;;;5049367;28;20068;-73
2023/10/25 05:34:31;;;;;;;7.03;3.28;;;25.40;55.50;;;;;;5049348;28;20136;-73
2023/10/25 05:36:57;;;;;;;7.95;3.97;;;25.50;55.40;;;;;;5049393;28;20049;-74
2023/10/25 05:39:24;;;;;;;6.32;3.45;;;25.40;55.50;;;;;;5049296;28;20044;-72
2023/10/25 05:41:51;;;;;;;8.38;5.18;;;25.50;55.50;;;;;;5050083;28;20052;-72
2023/10/25 05:44:17;;;;;;;10.20;4.50;;;25.60;55.50;;;;;;5054897;28;20032;-73
2023/10/25 05:46:43;;;;;;;8.85;4.50;;;25.60;55.40;;;;;;5068973;28;20037;-73
2023/10/25 05:49:09;;;;;;;8.52;4.28;;;25.50;55.40;;;;;;5070174;28;20779;-72
2023/10/25 05:51:36;;;;;;;10.27;3.78;;;25.50;55.40;;;;;;5061545;28;20029;-77
2023/10/25 05:54:02;;;;;;;6.43;3.38;;;25.50;55.40;;;;;;5101344;28;20120;-76
2023/10/25 05:56:29;;;;;;;4.30;2.97;;;25.60;55.50;;;;;;5069547;28;20060;-75
2023/10/25 05:58:56;;;;;;;6.53;2.80;;;25.60;57.80;;;;;;5048516;28;20083;-73
2023/10/25 06:01:50;;;;;;;6.10;2.75;;;26.00;58.80;;;;;;5031755;28;20432;-77
2023/10/25 06:04:18;;;;;;;12.15;3.63;;;26.20;59.50;;;;;;5048630;28;20047;-74
2023/10/25 06:06:45;;;;;;;9.38;4.32;;;26.10;56.20;;;;;;5032352;28;20045;-74
2023/10/25 06:09:13;;;;;;;3.15;2.67;;;26.00;55.60;;;;;;5049148;28;20120;-74
2023/10/25 06:11:40;;;;;;;7.15;3.33;;;25.90;54.90;;;;;;5032956;28;20052;-75
2023/10/25 06:14:07;;;;;;;6.95;3.28;;;25.90;54.90;;;;;;5048878;28;20064;-75
2023/10/25 06:16:33;;;;;;;8.68;3.70;;;25.70;55.00;;;;;;5009455;28;20137;-75
2023/10/25 06:18:59;;;;;;;4.78;3.35;;;26.00;55.50;;;;;;5009101;28;20449;-74
2023/10/25 06:21:25;;;;;;;6.00;3.45;;;25.80;55.10;;;;;;5009445;28;20053;-75
2023/10/25 06:23:51;;;;;;;4.80;3.28;;;25.80;55.00;;;;;;4996422;28;20116;-74
2023/10/25 06:26:18;;;;;;;6.93;3.35;;;25.70;55.10;;;;;;4987857;28;20046;-75
2023/10/25 06:28:44;;;;;;;8.20;3.17;;;25.70;55.20;;;;;;5002481;28;20081;-76
2023/10/25 06:31:11;;;;;;;11.68;3.45;;;25.80;55.20;;;;;;5014179;28;20032;-75
2023/10/25 06:33:37;;;;;;;14.15;3.22;;;25.70;54.80;;;;;;5028731;28;20033;-75
2023/10/25 06:36:04;;;;;;;5.03;2.83;;;25.80;54.80;;;;;;5028772;28;20059;-74
2023/10/25 06:38:30;;;;;;;5.20;2.60;;;25.70;54.40;;;;;;5012286;28;20378;-76
2023/10/25 06:40:56;;;;;;;4.25;2.83;;;25.90;54.60;;;;;;5012018;28;20076;-75
2023/10/25 06:43:23;;;;;;;6.82;2.60;;;26.00;55.70;;;;;;5028511;28;20123;-75
2023/10/25 06:45:49;;;;;;;8.10;3.15;;;26.00;55.20;;;;;;5029119;28;20045;-75
2023/10/25 06:48:15;;;;;;;4.57;2.22;;;26.00;59.00;;;;;;5073187;28;20040;-73
2023/10/25 06:50:46;;;;;;;4.57;3.03;;;26.10;59.50;;;;;;5060766;28;20442;-74
2023/10/25 06:53:13;;;;;;;5.93;2.35;;;26.20;59.90;;;;;;5074600;28;20081;-74
2023/10/25 06:55:39;;;;;;;4.93;2.55;;;26.30;62.70;;;;;;5073908;28;20050;-75
2023/10/25 06:58:05;;;;;;;18.20;4.25;;;26.30;61.70;;;;;;5082960;28;20059;-76
2023/10/25 07:00:31;;;;;;;10.00;3.80;;;26.20;60.50;;;;;;5077070;28;20032;-76
2023/10/25 07:03:02;;;;;;;6.00;2.60;;;26.30;59.00;;;;;;5091102;28;20042;-75
2023/10/25 07:05:29;;;;;;;3.03;2.58;;;26.50;61.80;;;;;;5109204;28;20059;-74
2023/10/25 07:07:56;;;;;;;13.05;3.92;;;27.00;61.60;;;;;;5081284;28;20073;-73
2023/10/25 07:10:23;;;;;;;7.50;3.65;;;27.20;57.60;;;;;;5109584;28;20031;-73
2023/10/25 07:12:49;;;;;;;9.65;4.22;;;27.30;57.20;;;;;;5109257;28;20089;-72
2023/10/25 07:15:17;;;;;;;36.55;7.85;;;27.30;58.60;;;;;;5101982;28;20692;-75
2023/10/25 07:17:44;;;;;;;13.57;4.80;;;27.60;57.80;;;;;;5095156;28;20392;-76
2023/10/25 07:20:11;;;;;;;8.70;3.83;;;27.70;58.80;;;;;;5097762;28;20036;-76
2023/10/25 07:22:38;;;;;;;13.68;4.85;;;27.90;52.40;;;;;;5095229;28;20110;-75
2023/10/25 07:25:05;;;;;;;8.27;4.15;;;27.80;55.60;;;;;;5106749;28;20040;-76
2023/10/25 07:27:32;;;;;;;12.38;5.07;;;28.00;58.70;;;;;;5115329;28;20036;-75
2023/10/25 07:29:58;;;;;;;12.93;6.20;;;28.00;56.20;;;;;;5115100;28;20027;-76
2023/10/25 07:32:24;;;;;;;12.57;5.43;;;28.10;61.00;;;;;;5093076;28;20532;-74
2023/10/25 07:34:51;;;;;;;7.18;4.18;;;28.10;55.90;;;;;;5114756;28;20145;-72
2023/10/25 07:37:17;;;;;;;7.03;3.90;;;28.20;54.50;;;;;;5061815;28;20118;-73
2023/10/25 07:39:43;;;;;;;10.43;4.78;;;28.30;50.20;;;;;;5114922;28;20114;-75
2023/10/25 07:42:09;;;;;;;14.43;5.05;;;28.20;51.10;;;;;;5114378;28;20101;-73
2023/10/25 07:44:35;;;;;;;9.50;4.93;;;28.20;52.10;;;;;;5114521;28;20066;-74
2023/10/25 07:47:01;;;;;;;10.85;5.18;;;28.30;52.30;;;;;;5110093;28;20123;-75
2023/10/25 07:49:28;;;;;;;11.70;4.63;;;28.20;52.80;;;;;;5070090;28;20039;-75
2023/10/25 07:51:56;;;;;;;8.25;5.00;;;28.30;52.00;;;;;;5093756;28;20468;-76
2023/10/25 07:54:22;;;;;;;9.05;5.28;;;28.40;50.70;;;;;;5094385;28;20040;-76
2023/10/25 07:56:48;;;;;;;7.28;4.63;;;28.20;51.90;;;;;;5087169;28;20028;-73
2023/10/25 07:59:14;;;;;;;8.68;4.50;;;28.20;50.70;;;;;;5096624;28;20531;-74
2023/10/25 08:01:40;;;;;;;8.85;5.28;;;28.10;49.80;;;;;;5084057;28;20043;-74
2023/10/25 08:04:06;;;;;;;14.13;5.28;;;28.10;50.90;;;;;;5105064;28;20036;-75
2023/10/25 08:06:34;;;;;;;12.23;5.88;;;28.10;52.50;;;;;;5077734;28;20032;-77
2023/10/25 08:09:00;;;;;;;6.57;5.00;;;28.10;53.40;;;;;;5099707;28;20058;-75
2023/10/25 08:11:26;;;;;;;8.48;4.90;;;28.20;55.30;;;;;;5108484;28;20039;-76
2023/10/25 08:13:52;;;;;;;13.98;6.13;;;28.30;51.20;;;;;;5091557;28;20050;-76
2023/10/25 08:16:18;;;;;;;12.50;5.15;;;28.30;52.70;;;;;;5093821;28;20041;-75
2023/10/25 08:18:44;;;;;;;7.97;5.20;;;28.10;51.40;;;;;;5095409;28;20066;-74
2023/10/25 08:21:14;;;;;;;8.68;4.72;;;28.10;50.00;;;;;;5086368;28;20174;-75
2023/10/25 08:23:40;;;;;;;6.10;4.32;;;28.10;48.50;;;;;;5111644;28;20035;-74
2023/10/25 08:26:06;;;;;;;5.82;3.95;;;28.10;50.10;;;;;;5075170;28;20055;-73
2023/10/25 08:28:32;;;;;;;22.65;6.20;;;28.20;47.20;;;;;;5075802;28;20043;-75
2023/10/25 08:30:58;;;;;;;31.25;7.50;;;28.00;52.30;;;;;;5093528;28;20036;-74
2023/10/25 08:33:24;;;;;;;15.88;5.38;;;28.10;51.30;;;;;;5096019;28;20076;-72
2023/10/25 08:36:03;;;;;;;10.18;4.88;;;28.20;52.60;;;;;;5093334;28;20040;-74
2023/10/25 08:38:29;;;;;;;7.63;4.93;;;28.10;50.40;;;;;;4998425;28;20531;-75
2023/10/25 08:41:22;;;;;;;9.70;4.47;;;28.20;48.70;;;;;;5033935;28;20048;-75
2023/10/25 08:43:48;;;;;;;7.93;4.47;;;28.10;48.00;;;;;;4994241;28;20859;-75
2023/10/25 08:46:16;;;;;;;7.93;4.07;;;28.10;49.20;;;;;;5010910;28;20132;-75
2023/10/25 08:48:42;;;;;;;7.63;4.43;;;28.10;48.30;;;;;;5010843;28;20056;-79
2023/10/25 08:51:08;;;;;;;7.13;3.65;;;28.10;48.60;;;;;;5010819;28;20041;-75
2023/10/25 08:53:35;;;;;;;9.52;3.50;;;28.00;49.40;;;;;;4994235;28;20088;-75
2023/10/25 08:56:01;;;;;;;4.00;2.67;;;28.00;50.40;;;;;;4994884;28;20432;-77
2023/10/25 08:58:27;;;;;;;6.53;3.95;;;28.00;51.50;;;;;;4978416;28;20197;-74
2023/10/25 09:00:55;;;;;;;5.70;3.00;;;27.90;51.50;;;;;;5010669;28;20100;-76
2023/10/25 09:03:32;;;;;;;10.27;4.35;;;27.90;52.50;;;;;;5010650;28;20053;-75
2023/10/25 09:05:59;;;;;;;9.82;4.68;;;28.00;50.90;;;;;;5010551;28;20053;-75
2023/10/25 09:08:26;;;;;;;8.05;3.70;;;27.90;50.80;;;;;;5012929;28;20068;-74
2023/10/25 09:11:02;;;;;;;7.55;3.53;;;27.80;50.60;;;;;;5049960;28;20037;-75
2023/10/25 09:13:34;;;;;;;5.53;3.42;;;27.70;50.00;;;;;;5033349;28;20041;-74
2023/10/25 09:16:05;;;;;;;7.70;3.88;;;27.70;49.60;;;;;;5050078;28;20048;-74
2023/10/25 09:18:33;;;;;;;7.07;3.75;;;27.70;50.20;;;;;;5037632;28;20141;-75
2023/10/25 09:20:59;;;;;;;4.95;3.35;;;27.70;52.10;;;;;;5075506;28;20051;-78
2023/10/25 09:23:25;;;;;;;6.63;3.38;;;27.70;51.60;;;;;;5092632;28;20391;-78
2023/10/25 09:25:51;;;;;;;5.70;3.70;;;27.50;51.30;;;;;;5092419;28;20056;-77
2023/10/25 09:28:28;;;;;;;7.90;4.28;;;27.60;50.60;;;;;;5092776;28;20386;-79
2023/10/25 09:30:58;;;;;;;5.68;3.33;;;27.50;50.00;;;;;;5092169;28;20055;-76
2023/10/25 09:33:29;;;;;;;6.63;3.90;;;27.50;49.70;;;;;;5092107;28;20335;-74
2023/10/25 09:35:56;;;;;;;5.97;3.40;;;27.50;49.20;;;;;;5112716;28;20426;-76
2023/10/25 09:38:23;;;;;;;7.55;3.40;;;27.40;49.20;;;;;;5085555;28;20042;-75
2023/10/25 09:40:50;;;;;;;8.70;3.95;;;27.30;49.20;;;;;;5106534;28;20512;-77
2023/10/25 09:43:20;;;;;;;13.40;3.78;;;27.30;48.80;;;;;;5094556;28;20074;-73
2023/10/25 09:45:53;;;;;;;8.90;3.53;;;27.40;49.60;;;;;;5096579;28;20039;-75
2023/10/25 09:48:20;;;;;;;7.97;3.03;;;27.20;50.20;;;;;;5085326;28;20032;-76
2023/10/25 09:51:15;;;;;;;4.07;2.88;;;27.30;50.70;;;;;;5092387;28;20035;-76
2023/10/25 09:53:49;;;;;;;6.88;3.58;;;27.20;51.90;;;;;;5001202;28;20410;-76
2023/10/25 09:56:16;;;;;;;11.02;3.70;;;27.20;51.90;;;;;;5003963;28;20049;-74
2023/10/25 09:58:44;;;;;;;7.20;3.22;;;27.20;52.20;;;;;;4991348;28;20544;-70
2023/10/25 10:01:11;;;;;;;8.77;3.28;;;27.20;52.40;;;;;;4993181;28;20144;-77
2023/10/25 10:04:06;;;;;;;9.30;2.80;;;27.10;52.80;;;;;;5003125;28;20072;-75
2023/10/25 10:06:49;;;;;;;6.43;3.33;;;27.10;53.80;;;;;;5009623;28;20037;-76
2023/10/25 10:09:31;;;;;;;8.98;3.63;;;27.00;53.20;;;;;;5009696;28;20034;-76
2023/10/25 10:12:04;;;;;;;4.53;2.58;;;27.10;53.10;;;;;;5002367;28;20065;-74
2023/10/25 10:14:36;;;;;;;9.90;3.55;;;27.00;53.20;;;;;;5002692;28;20544;-75
2023/10/25 10:17:09;;;;;;;4.28;2.67;;;27.00;53.30;;;;;;5009482;28;20041;-75
2023/10/25 10:19:40;;;;;;;6.07;2.58;;;27.00;53.50;;;;;;4992564;28;20038;-74
2023/10/25 10:22:07;;;;;;;6.35;3.13;;;26.80;53.30;;;;;;4992488;28;20183;-74
2023/10/25 10:24:42;;;;;;;6.90;3.60;;;27.00;54.00;;;;;;5004345;28;20547;-73
2023/10/25 10:27:11;;;;;;;5.85;2.40;;;26.90;53.40;;;;;;4989075;28;20085;-73
2023/10/25 10:29:39;;;;;;;4.43;2.88;;;26.70;53.50;;;;;;4978274;28;20062;-77
2023/10/25 10:32:07;;;;;;;5.88;3.10;;;26.80;53.70;;;;;;5066368;28;20037;-76
2023/10/25 10:34:35;;;;;;;6.95;2.75;;;26.80;53.90;;;;;;5066818;28;20044;-76
2023/10/25 10:37:09;;;;;;;11.32;2.58;;;26.80;53.90;;;;;;5051294;28;20468;-76
2023/10/25 10:39:38;;;;;;;5.15;2.38;;;26.70;53.90;;;;;;5063811;28;20036;-73
2023/10/25 10:42:05;;;;;;;7.15;2.25;;;26.60;53.80;;;;;;5068772;28;20082;-73
2023/10/25 10:44:35;;;;;;;5.85;2.83;;;26.70;53.90;;;;;;5068145;28;20116;-72
2023/10/25 10:47:04;;;;;;;9.38;3.00;;;26.70;54.40;;;;;;5065725;28;20040;-73
2023/10/25 10:49:33;;;;;;;5.65;2.72;;;26.80;55.30;;;;;;5065044;28;20512;-73
2023/10/25 10:52:02;;;;;;;3.80;3.05;;;26.70;55.80;;;;;;5066337;28;20670;-76
2023/10/25 10:54:28;;;;;;;5.13;2.63;;;26.70;55.50;;;;;;5075580;28;20036;-76
2023/10/25 10:56:55;;;;;;;9.48;3.25;;;26.60;55.30;;;;;;5074774;28;20032;-76
2023/10/25 10:59:21;;;;;;;8.93;4.25;;;26.60;55.00;;;;;;5073881;28;20060;-77
2023/10/25 11:01:47;;;;;;;6.05;2.95;;;26.60;54.90;;;;;;5074887;28;20060;-77
2023/10/25 11:04:13;;;;;;;9.75;4.07;;;26.60;54.70;;;;;;5073145;28;20032;-76
2023/10/25 11:06:40;;;;;;;5.30;2.75;;;26.60;54.70;;;;;;5074452;28;20043;-77
2023/10/25 11:09:08;;;;;;;7.32;3.60;;;26.60;54.60;;;;;;5072699;28;20487;-76
2023/10/25 11:11:35;;;;;;;6.53;2.70;;;26.50;54.60;;;;;;5071112;28;20035;-77
2023/10/25 11:14:01;;;;;;;6.43;3.65;;;26.60;54.60;;;;;;5069962;28;20190;-73
2023/10/25 11:16:28;;;;;;;7.25;2.83;;;26.60;54.60;;;;;;5036207;28;20048;-74
2023/10/25 11:19:06;;;;;;;6.95;3.15;;;26.60;54.90;;;;;;5056099;28;20051;-72
2023/10/25 11:21:33;;;;;;;6.15;2.63;;;26.50;55.40;;;;;;5054438;28;20168;-75
2023/10/25 11:24:01;;;;;;;10.80;3.55;;;26.60;55.60;;;;;;5054081;28;20123;-74
2023/10/25 11:26:28;;;;;;;14.65;4.53;;;26.60;55.90;;;;;;5092977;28;20056;-73
2023/10/25 11:28:54;;;;;;;9.43;3.47;;;26.50;56.20;;;;;;5093141;28;20062;-76
2023/10/25 11:31:22;;;;;;;8.93;2.95;;;26.60;56.70;;;;;;5093755;28;20107;-74
2023/10/25 11:33:48;;;;;;;9.48;4.80;;;26.50;56.70;;;;;;5091884;28;20036;-74
2023/10/25 11:36:14;;;;;;;5.35;2.42;;;26.50;56.40;;;;;;5113657;28;20102;-75
2023/10/25 11:38:43;;;;;;;3.70;2.70;;;26.50;56.40;;;;;;5113315;28;20114;-76
2023/10/25 11:41:09;;;;;;;5.43;2.47;;;26.60;56.50;;;;;;5113530;28;20055;-76
2023/10/25 13:14:39;;;;;;;12.95;5.53;;;25.20;58.40;;;;;;5108812;27;20382;-70
2023/10/25 13:17:06;;;;;;;11.20;5.50;;;25.50;57.40;;;;;;5107331;28;20500;-71
2023/10/25 13:19:33;;;;;;;11.88;4.95;;;25.60;57.20;;;;;;5108943;28;20063;-71
2023/10/25 13:21:59;;;;;;;21.80;8.27;;;25.60;57.10;;;;;;5108532;28;20040;-69
2023/10/25 13:24:25;;;;;;;15.60;6.20;;;25.60;57.00;;;;;;5108593;28;20028;-70
2023/10/25 13:26:51;;;;;;;13.85;5.50;;;25.60;56.90;;;;;;5089330;28;20048;-70
2023/10/25 13:29:17;;;;;;;38.45;10.60;;;25.80;57.60;;;;;;5108589;28;20035;-70
2023/10/25 13:31:43;;;;;;;18.30;6.55;;;25.70;59.10;;;;;;5106157;28;20515;-69
2023/10/25 13:34:09;;;;;;;8.07;4.82;;;25.70;59.60;;;;;;5108295;28;20028;-69
2023/10/25 13:36:35;;;;;;;14.65;5.20;;;25.70;59.60;;;;;;5106153;28;20044;-69
2023/10/25 13:39:03;;;;;;;8.93;4.38;;;25.70;58.80;;;;;;5108279;28;20044;-69
2023/10/25 13:41:29;;;;;;;7.57;4.07;;;25.70;58.10;;;;;;5107065;28;20055;-69
2023/10/25 13:43:54;;;;;;;7.82;2.95;;;25.80;57.60;;;;;;5108482;28;20443;-70
2023/10/25 13:46:21;;;;;;;11.55;3.88;;;25.70;57.20;;;;;;5108387;28;20060;-69
2023/10/25 13:48:47;;;;;;;26.30;6.63;;;25.80;56.90;;;;;;5108124;28;20047;-70
2023/10/25 13:51:13;;;;;;;8.27;2.85;;;26.00;56.90;;;;;;5107871;28;20032;-69
2023/10/25 13:53:39;;;;;;;11.02;4.47;;;25.80;56.20;;;;;;5108031;28;20039;-70
2023/10/25 13:56:05;;;;;;;5.95;3.47;;;25.90;55.80;;;;;;5107614;28;20035;-68
2023/10/25 13:58:31;;;;;;;8.63;3.90;;;25.90;55.60;;;;;;5107638;28;20035;-68
2023/10/25 14:01:02;;;;;;;7.28;3.80;;;25.80;55.50;;;;;;5107381;28;20027;-69
2023/10/25 14:03:28;;;;;;;8.93;3.80;;;25.90;55.20;;;;;;5104150;28;20043;-67
2023/10/25 14:05:54;;;;;;;5.43;3.35;;;26.00;55.50;;;;;;5105316;28;20028;-66
2023/10/25 14:08:20;;;;;;;7.53;4.05;;;25.90;54.90;;;;;;5118824;27;20051;-69
2023/10/25 14:10:47;;;;;;;12.95;3.28;;;25.90;54.70;;;;;;5104824;28;20044;-68
2023/10/25 14:13:14;;;;;;;6.18;3.00;;;25.90;54.50;;;;;;5104130;28;20537;-69
2023/10/25 14:15:40;;;;;;;8.00;3.58;;;26.00;54.80;;;;;;5090206;28;20036;-68
2023/10/25 14:18:08;;;;;;;6.88;2.83;;;25.90;54.10;;;;;;5089885;28;20422;-68